sensor_id;sensor_type;location;lat;lon;timestamp;pressure;altitude;pressure_sealevel;temperature
24201;BMP280;2801;50.972;7.856;2023-12-04T00:01:22;97521.91;;;-1.52
24201;BMP280;2801;50.972;7.856;2023-12-04T00:03:49;97522.09;;;-1.37
24201;BMP280;2801;50.972;7.856;2023-12-04T00:06:16;97514.66;;;-1.45
24201;BMP280;2801;50.972;7.856;2023-12-04T00:08:43;97515.00;;;-1.36
24201;BMP280;2801;50.972;7.856;2023-12-04T00:11:11;97503.78;;;-1.27
24201;BMP280;2801;50.972;7.856;2023-12-04T00:13:38;97503.22;;;-1.34
24201;BMP280;2801;50.972;7.856;2023-12-04T00:16:05;97506.19;;;-1.47
24201;BMP280;2801;50.972;7.856;2023-12-04T00:18:32;97515.22;;;-1.38
24201;BMP280;2801;50.972;7.856;2023-12-04T00:21:00;97504.38;;;-1.20
24201;BMP280;2801;50.972;7.856;2023-12-04T00:23:26;97514.50;;;-1.33
24201;BMP280;2801;50.972;7.856;2023-12-04T00:25:55;97500.38;;;-1.27
24201;BMP280;2801;50.972;7.856;2023-12-04T00:28:22;97500.13;;;-1.26
24201;BMP280;2801;50.972;7.856;2023-12-04T00:30:49;97499.22;;;-1.15
24201;BMP280;2801;50.972;7.856;2023-12-04T00:33:16;97494.22;;;-1.11
24201;BMP280;2801;50.972;7.856;2023-12-04T00:35:43;97492.00;;;-1.46
24201;BMP280;2801;50.972;7.856;2023-12-04T00:38:10;97486.75;;;-1.24
24201;BMP280;2801;50.972;7.856;2023-12-04T00:40:37;97488.06;;;-1.22
24201;BMP280;2801;50.972;7.856;2023-12-04T00:43:04;97485.09;;;-1.30
24201;BMP280;2801;50.972;7.856;2023-12-04T00:45:31;97493.94;;;-1.36
24201;BMP280;2801;50.972;7.856;2023-12-04T00:47:58;97485.66;;;-1.28
24201;BMP280;2801;50.972;7.856;2023-12-04T00:50:25;97482.41;;;-1.35
24201;BMP280;2801;50.972;7.856;2023-12-04T00:52:53;97475.91;;;-1.28
24201;BMP280;2801;50.972;7.856;2023-12-04T00:55:20;97468.06;;;-1.23
24201;BMP280;2801;50.972;7.856;2023-12-04T00:57:47;97458.31;;;-1.27
24201;BMP280;2801;50.972;7.856;2023-12-04T01:00:14;97455.91;;;-1.29
24201;BMP280;2801;50.972;7.856;2023-12-04T01:02:41;97460.41;;;-1.51
24201;BMP280;2801;50.972;7.856;2023-12-04T01:05:09;97447.66;;;-1.37
24201;BMP280;2801;50.972;7.856;2023-12-04T01:07:36;97451.09;;;-1.37
24201;BMP280;2801;50.972;7.856;2023-12-04T01:10:04;97452.44;;;-1.34
24201;BMP280;2801;50.972;7.856;2023-12-04T01:12:31;97444.69;;;-1.19
24201;BMP280;2801;50.972;7.856;2023-12-04T01:14:58;97439.97;;;-1.17
24201;BMP280;2801;50.972;7.856;2023-12-04T01:17:25;97439.53;;;-1.36
24201;BMP280;2801;50.972;7.856;2023-12-04T01:19:53;97439.81;;;-1.32
24201;BMP280;2801;50.972;7.856;2023-12-04T01:22:20;97434.47;;;-1.42
24201;BMP280;2801;50.972;7.856;2023-12-04T01:24:47;97433.63;;;-1.21
24201;BMP280;2801;50.972;7.856;2023-12-04T01:27:14;97444.50;;;-1.39
24201;BMP280;2801;50.972;7.856;2023-12-04T01:29:41;97437.31;;;-1.22
24201;BMP280;2801;50.972;7.856;2023-12-04T01:32:08;97435.09;;;-1.35
24201;BMP280;2801;50.972;7.856;2023-12-04T01:34:35;97424.66;;;-1.25
24201;BMP280;2801;50.972;7.856;2023-12-04T01:37:02;97429.41;;;-1.22
24201;BMP280;2801;50.972;7.856;2023-12-04T01:39:29;97429.31;;;-1.32
24201;BMP280;2801;50.972;7.856;2023-12-04T01:41:56;97418.28;;;-1.29
24201;BMP280;2801;50.972;7.856;2023-12-04T01:44:24;97430.28;;;-1.43
24201;BMP280;2801;50.972;7.856;2023-12-04T01:46:51;97420.09;;;-1.35
24201;BMP280;2801;50.972;7.856;2023-12-04T01:49:18;97422.72;;;-1.35
24201;BMP280;2801;50.972;7.856;2023-12-04T01:51:46;97426.38;;;-1.36
24201;BMP280;2801;50.972;7.856;2023-12-04T01:54:13;97422.25;;;-1.27
24201;BMP280;2801;50.972;7.856;2023-12-04T01:56:41;97413.38;;;-1.21
24201;BMP280;2801;50.972;7.856;2023-12-04T01:59:08;97414.22;;;-1.15
24201;BMP280;2801;50.972;7.856;2023-12-04T02:01:37;97409.69;;;-1.20
24201;BMP280;2801;50.972;7.856;2023-12-04T02:04:04;97416.56;;;-1.19
24201;BMP280;2801;50.972;7.856;2023-12-04T02:06:31;97412.34;;;-1.20
24201;BMP280;2801;50.972;7.856;2023-12-04T02:08:59;97405.38;;;-1.31
24201;BMP280;2801;50.972;7.856;2023-12-04T02:11:26;97402.66;;;-1.14
24201;BMP280;2801;50.972;7.856;2023-12-04T02:13:53;97396.50;;;-1.25
24201;BMP280;2801;50.972;7.856;2023-12-04T02:16:23;97398.09;;;-1.24
24201;BMP280;2801;50.972;7.856;2023-12-04T02:18:53;97400.03;;;-1.14
24201;BMP280;2801;50.972;7.856;2023-12-04T02:21:20;97400.34;;;-1.11
24201;BMP280;2801;50.972;7.856;2023-12-04T02:23:52;97392.25;;;-1.31
24201;BMP280;2801;50.972;7.856;2023-12-04T02:26:28;97396.06;;;-1.17
24201;BMP280;2801;50.972;7.856;2023-12-04T02:29:05;97397.66;;;-1.42
24201;BMP280;2801;50.972;7.856;2023-12-04T02:31:35;97386.69;;;-1.34
24201;BMP280;2801;50.972;7.856;2023-12-04T02:34:06;97385.84;;;-1.40
24201;BMP280;2801;50.972;7.856;2023-12-04T02:36:36;97382.41;;;-1.40
24201;BMP280;2801;50.972;7.856;2023-12-04T02:39:04;97376.06;;;-1.44
24201;BMP280;2801;50.972;7.856;2023-12-04T02:41:32;97379.47;;;-1.49
24201;BMP280;2801;50.972;7.856;2023-12-04T02:43:59;97377.00;;;-1.55
24201;BMP280;2801;50.972;7.856;2023-12-04T02:46:26;97377.13;;;-1.45
24201;BMP280;2801;50.972;7.856;2023-12-04T02:48:53;97364.69;;;-1.55
24201;BMP280;2801;50.972;7.856;2023-12-04T02:51:20;97364.78;;;-1.45
24201;BMP280;2801;50.972;7.856;2023-12-04T02:53:47;97363.19;;;-1.46
24201;BMP280;2801;50.972;7.856;2023-12-04T02:56:14;97359.28;;;-1.43
24201;BMP280;2801;50.972;7.856;2023-12-04T02:58:41;97357.03;;;-1.56
24201;BMP280;2801;50.972;7.856;2023-12-04T03:01:08;97337.97;;;-1.42
24201;BMP280;2801;50.972;7.856;2023-12-04T03:03:35;97327.97;;;-1.45
24201;BMP280;2801;50.972;7.856;2023-12-04T03:06:02;97327.72;;;-1.43
24201;BMP280;2801;50.972;7.856;2023-12-04T03:08:29;97310.28;;;-1.54
24201;BMP280;2801;50.972;7.856;2023-12-04T03:10:56;97301.81;;;-1.61
24201;BMP280;2801;50.972;7.856;2023-12-04T03:13:23;97303.47;;;-1.50
24201;BMP280;2801;50.972;7.856;2023-12-04T03:15:50;97309.28;;;-1.48
24201;BMP280;2801;50.972;7.856;2023-12-04T03:18:17;97306.59;;;-1.53
24201;BMP280;2801;50.972;7.856;2023-12-04T03:20:44;97301.75;;;-1.66
24201;BMP280;2801;50.972;7.856;2023-12-04T03:23:11;97301.59;;;-1.55
24201;BMP280;2801;50.972;7.856;2023-12-04T03:25:38;97297.41;;;-1.51
24201;BMP280;2801;50.972;7.856;2023-12-04T03:28:05;97292.25;;;-1.41
24201;BMP280;2801;50.972;7.856;2023-12-04T03:30:32;97289.06;;;-1.43
24201;BMP280;2801;50.972;7.856;2023-12-04T03:32:59;97289.28;;;-1.49
24201;BMP280;2801;50.972;7.856;2023-12-04T03:35:26;97285.38;;;-1.47
24201;BMP280;2801;50.972;7.856;2023-12-04T03:37:53;97284.88;;;-1.44
24201;BMP280;2801;50.972;7.856;2023-12-04T03:40:21;97281.66;;;-1.51
24201;BMP280;2801;50.972;7.856;2023-12-04T03:42:48;97277.59;;;-1.63
24201;BMP280;2801;50.972;7.856;2023-12-04T03:45:15;97273.47;;;-1.54
24201;BMP280;2801;50.972;7.856;2023-12-04T03:47:42;97273.72;;;-1.56
24201;BMP280;2801;50.972;7.856;2023-12-04T03:50:09;97273.63;;;-1.66
24201;BMP280;2801;50.972;7.856;2023-12-04T03:52:36;97270.56;;;-1.53
24201;BMP280;2801;50.972;7.856;2023-12-04T03:55:03;97268.97;;;-1.59
24201;BMP280;2801;50.972;7.856;2023-12-04T03:57:30;97270.31;;;-1.51
24201;BMP280;2801;50.972;7.856;2023-12-04T03:59:57;97261.81;;;-1.63
24201;BMP280;2801;50.972;7.856;2023-12-04T04:02:24;97263.81;;;-1.49
24201;BMP280;2801;50.972;7.856;2023-12-04T04:04:51;97260.78;;;-1.62
24201;BMP280;2801;50.972;7.856;2023-12-04T04:07:18;97251.16;;;-1.52
24201;BMP280;2801;50.972;7.856;2023-12-04T04:09:45;97250.59;;;-1.54
24201;BMP280;2801;50.972;7.856;2023-12-04T04:12:12;97247.47;;;-1.51
24201;BMP280;2801;50.972;7.856;2023-12-04T04:14:39;97254.81;;;-1.53
24201;BMP280;2801;50.972;7.856;2023-12-04T04:17:06;97243.19;;;-1.62
24201;BMP280;2801;50.972;7.856;2023-12-04T04:19:33;97246.41;;;-1.55
24201;BMP280;2801;50.972;7.856;2023-12-04T04:22:00;97243.28;;;-1.47
24201;BMP280;2801;50.972;7.856;2023-12-04T04:24:28;97244.59;;;-1.49
24201;BMP280;2801;50.972;7.856;2023-12-04T04:26:55;97243.53;;;-1.53
24201;BMP280;2801;50.972;7.856;2023-12-04T04:29:22;97226.06;;;-1.69
24201;BMP280;2801;50.972;7.856;2023-12-04T04:31:49;97234.50;;;-1.62
24201;BMP280;2801;50.972;7.856;2023-12-04T04:34:15;97241.16;;;-1.50
24201;BMP280;2801;50.972;7.856;2023-12-04T04:36:43;97239.84;;;-1.52
24201;BMP280;2801;50.972;7.856;2023-12-04T04:39:13;97239.00;;;-1.58
24201;BMP280;2801;50.972;7.856;2023-12-04T04:41:40;97242.47;;;-1.52
24201;BMP280;2801;50.972;7.856;2023-12-04T04:44:07;97238.03;;;-1.47
24201;BMP280;2801;50.972;7.856;2023-12-04T04:46:34;97229.22;;;-1.62
24201;BMP280;2801;50.972;7.856;2023-12-04T04:49:01;97231.16;;;-1.53
24201;BMP280;2801;50.972;7.856;2023-12-04T04:51:29;97230.53;;;-1.65
24201;BMP280;2801;50.972;7.856;2023-12-04T04:53:56;97234.50;;;-1.62
24201;BMP280;2801;50.972;7.856;2023-12-04T04:56:23;97228.00;;;-1.55
24201;BMP280;2801;50.972;7.856;2023-12-04T04:58:51;97230.59;;;-1.60
24201;BMP280;2801;50.972;7.856;2023-12-04T05:01:19;97234.88;;;-1.49
24201;BMP280;2801;50.972;7.856;2023-12-04T05:03:46;97234.00;;;-1.59
24201;BMP280;2801;50.972;7.856;2023-12-04T05:06:14;97227.41;;;-1.62
24201;BMP280;2801;50.972;7.856;2023-12-04T05:08:41;97225.28;;;-1.65
24201;BMP280;2801;50.972;7.856;2023-12-04T05:11:08;97223.72;;;-1.61
24201;BMP280;2801;50.972;7.856;2023-12-04T05:13:35;97224.44;;;-1.70
24201;BMP280;2801;50.972;7.856;2023-12-04T05:16:02;97228.78;;;-1.54
24201;BMP280;2801;50.972;7.856;2023-12-04T05:18:29;97229.03;;;-1.56
24201;BMP280;2801;50.972;7.856;2023-12-04T05:20:56;97229.88;;;-1.50
24201;BMP280;2801;50.972;7.856;2023-12-04T05:23:23;97234.34;;;-1.51
24201;BMP280;2801;50.972;7.856;2023-12-04T05:25:50;97225.88;;;-1.58
24201;BMP280;2801;50.972;7.856;2023-12-04T05:28:17;97214.06;;;-1.55
24201;BMP280;2801;50.972;7.856;2023-12-04T05:30:44;97218.16;;;-1.69
24201;BMP280;2801;50.972;7.856;2023-12-04T05:33:11;97219.88;;;-1.85
24201;BMP280;2801;50.972;7.856;2023-12-04T05:35:38;97220.66;;;-1.84
24201;BMP280;2801;50.972;7.856;2023-12-04T05:38:05;97215.47;;;-1.74
24201;BMP280;2801;50.972;7.856;2023-12-04T05:40:34;97217.63;;;-1.66
24201;BMP280;2801;50.972;7.856;2023-12-04T05:43:01;97216.56;;;-1.70
24201;BMP280;2801;50.972;7.856;2023-12-04T05:45:28;97216.06;;;-1.67
24201;BMP280;2801;50.972;7.856;2023-12-04T05:47:55;97207.81;;;-1.81
24201;BMP280;2801;50.972;7.856;2023-12-04T05:50:22;97209.94;;;-1.78
24201;BMP280;2801;50.972;7.856;2023-12-04T05:52:50;97210.28;;;-1.69
24201;BMP280;2801;50.972;7.856;2023-12-04T05:55:18;97210.53;;;-1.71
24201;BMP280;2801;50.972;7.856;2023-12-04T05:57:45;97202.66;;;-1.71
24201;BMP280;2801;50.972;7.856;2023-12-04T06:00:12;97201.63;;;-1.65
24201;BMP280;2801;50.972;7.856;2023-12-04T06:02:42;97198.16;;;-1.70
24201;BMP280;2801;50.972;7.856;2023-12-04T06:05:09;97202.34;;;-1.74
24201;BMP280;2801;50.972;7.856;2023-12-04T06:07:37;97191.25;;;-1.81
24201;BMP280;2801;50.972;7.856;2023-12-04T06:10:05;97186.97;;;-1.92
24201;BMP280;2801;50.972;7.856;2023-12-04T06:12:33;97197.31;;;-1.81
24201;BMP280;2801;50.972;7.856;2023-12-04T06:15:01;97199.91;;;-1.86
24201;BMP280;2801;50.972;7.856;2023-12-04T06:17:28;97199.81;;;-1.96
24201;BMP280;2801;50.972;7.856;2023-12-04T06:19:55;97192.88;;;-2.07
24201;BMP280;2801;50.972;7.856;2023-12-04T06:22:22;97200.34;;;-1.94
24201;BMP280;2801;50.972;7.856;2023-12-04T06:24:50;97198.22;;;-1.97
24201;BMP280;2801;50.972;7.856;2023-12-04T06:27:18;97204.44;;;-2.08
24201;BMP280;2801;50.972;7.856;2023-12-04T06:29:49;97195.22;;;-2.10
24201;BMP280;2801;50.972;7.856;2023-12-04T06:32:19;97202.25;;;-2.16
24201;BMP280;2801;50.972;7.856;2023-12-04T06:34:47;97193.19;;;-2.03
24201;BMP280;2801;50.972;7.856;2023-12-04T06:37:15;97188.56;;;-2.18
24201;BMP280;2801;50.972;7.856;2023-12-04T06:39:45;97189.72;;;-2.09
24201;BMP280;2801;50.972;7.856;2023-12-04T06:42:15;97182.13;;;-2.05
24201;BMP280;2801;50.972;7.856;2023-12-04T06:44:42;97171.47;;;-2.20
24201;BMP280;2801;50.972;7.856;2023-12-04T06:47:12;97187.22;;;-2.20
24201;BMP280;2801;50.972;7.856;2023-12-04T06:49:40;97182.56;;;-2.13
24201;BMP280;2801;50.972;7.856;2023-12-04T06:52:07;97181.88;;;-2.30
24201;BMP280;2801;50.972;7.856;2023-12-04T06:54:34;97164.66;;;-2.21
24201;BMP280;2801;50.972;7.856;2023-12-04T06:57:01;97156.44;;;-2.30
24201;BMP280;2801;50.972;7.856;2023-12-04T06:59:28;97161.47;;;-2.23
24201;BMP280;2801;50.972;7.856;2023-12-04T07:01:56;97160.72;;;-2.19
24201;BMP280;2801;50.972;7.856;2023-12-04T07:04:23;97152.84;;;-2.19
24201;BMP280;2801;50.972;7.856;2023-12-04T07:06:50;97153.34;;;-2.22
24201;BMP280;2801;50.972;7.856;2023-12-04T07:09:17;97150.19;;;-2.24
24201;BMP280;2801;50.972;7.856;2023-12-04T07:11:44;97151.44;;;-2.31
24201;BMP280;2801;50.972;7.856;2023-12-04T07:14:14;97139.63;;;-2.29
24201;BMP280;2801;50.972;7.856;2023-12-04T07:16:42;97139.13;;;-2.26
24201;BMP280;2801;50.972;7.856;2023-12-04T07:19:10;97134.38;;;-2.29
24201;BMP280;2801;50.972;7.856;2023-12-04T07:21:38;97126.25;;;-2.27
24201;BMP280;2801;50.972;7.856;2023-12-04T07:24:06;97127.84;;;-2.26
24201;BMP280;2801;50.972;7.856;2023-12-04T07:26:35;97128.94;;;-2.22
24201;BMP280;2801;50.972;7.856;2023-12-04T07:29:03;97124.22;;;-2.20
24201;BMP280;2801;50.972;7.856;2023-12-04T07:31:30;97121.59;;;-2.20
24201;BMP280;2801;50.972;7.856;2023-12-04T07:33:58;97120.03;;;-2.21
24201;BMP280;2801;50.972;7.856;2023-12-04T07:36:28;97102.97;;;-2.19
24201;BMP280;2801;50.972;7.856;2023-12-04T07:38:55;97113.75;;;-2.15
24201;BMP280;2801;50.972;7.856;2023-12-04T07:41:23;97104.63;;;-2.08
24201;BMP280;2801;50.972;7.856;2023-12-04T07:43:50;97102.53;;;-2.06
24201;BMP280;2801;50.972;7.856;2023-12-04T07:46:18;97100.72;;;-2.00
24201;BMP280;2801;50.972;7.856;2023-12-04T07:48:45;97101.78;;;-2.01
24201;BMP280;2801;50.972;7.856;2023-12-04T07:51:12;97100.25;;;-1.97
24201;BMP280;2801;50.972;7.856;2023-12-04T07:53:39;97090.53;;;-1.97
24201;BMP280;2801;50.972;7.856;2023-12-04T07:56:07;97093.41;;;-1.98
24201;BMP280;2801;50.972;7.856;2023-12-04T07:58:34;97080.31;;;-1.93
24201;BMP280;2801;50.972;7.856;2023-12-04T08:01:01;97064.84;;;-1.90
24201;BMP280;2801;50.972;7.856;2023-12-04T08:03:29;97070.13;;;-1.85
24201;BMP280;2801;50.972;7.856;2023-12-04T08:05:56;97063.84;;;-1.79
24201;BMP280;2801;50.972;7.856;2023-12-04T08:08:23;97055.44;;;-1.81
24201;BMP280;2801;50.972;7.856;2023-12-04T08:10:50;97060.25;;;-1.68
24201;BMP280;2801;50.972;7.856;2023-12-04T08:13:17;97058.13;;;-1.66
24201;BMP280;2801;50.972;7.856;2023-12-04T08:15:44;97060.53;;;-1.59
24201;BMP280;2801;50.972;7.856;2023-12-04T08:18:11;97060.28;;;-1.53
24201;BMP280;2801;50.972;7.856;2023-12-04T08:20:38;97069.00;;;-1.47
24201;BMP280;2801;50.972;7.856;2023-12-04T08:23:08;97080.06;;;-1.40
24201;BMP280;2801;50.972;7.856;2023-12-04T08:25:35;97088.50;;;-1.38
24201;BMP280;2801;50.972;7.856;2023-12-04T08:28:06;97091.16;;;-1.33
24201;BMP280;2801;50.972;7.856;2023-12-04T08:30:35;97082.50;;;-1.29
24201;BMP280;2801;50.972;7.856;2023-12-04T08:33:02;97070.69;;;-1.21
24201;BMP280;2801;50.972;7.856;2023-12-04T08:35:30;97067.84;;;-1.15
24201;BMP280;2801;50.972;7.856;2023-12-04T08:37:57;97066.53;;;-1.12
24201;BMP280;2801;50.972;7.856;2023-12-04T08:40:24;97063.91;;;-1.07
24201;BMP280;2801;50.972;7.856;2023-12-04T08:42:51;97064.97;;;-1.03
24201;BMP280;2801;50.972;7.856;2023-12-04T08:45:18;97074.72;;;-1.04
24201;BMP280;2801;50.972;7.856;2023-12-04T08:47:46;97061.03;;;-1.01
24201;BMP280;2801;50.972;7.856;2023-12-04T08:50:13;97066.03;;;-0.99
24201;BMP280;2801;50.972;7.856;2023-12-04T08:52:40;97069.72;;;-1.00
24201;BMP280;2801;50.972;7.856;2023-12-04T08:55:09;97073.97;;;-0.94
24201;BMP280;2801;50.972;7.856;2023-12-04T08:57:37;97066.56;;;-0.92
24201;BMP280;2801;50.972;7.856;2023-12-04T09:00:06;97061.06;;;-0.86
24201;BMP280;2801;50.972;7.856;2023-12-04T09:02:35;97064.50;;;-0.80
24201;BMP280;2801;50.972;7.856;2023-12-04T09:05:12;97050.56;;;-0.76
24201;BMP280;2801;50.972;7.856;2023-12-04T09:07:39;97048.19;;;-0.72
24201;BMP280;2801;50.972;7.856;2023-12-04T09:10:27;97043.47;;;-0.75
24201;BMP280;2801;50.972;7.856;2023-12-04T09:13:15;97031.59;;;-0.78
24201;BMP280;2801;50.972;7.856;2023-12-04T09:15:42;97034.22;;;-0.78
24201;BMP280;2801;50.972;7.856;2023-12-04T09:18:09;97033.97;;;-0.81
24201;BMP280;2801;50.972;7.856;2023-12-04T09:20:36;97031.34;;;-0.81
24201;BMP280;2801;50.972;7.856;2023-12-04T09:23:03;97027.13;;;-0.82
24201;BMP280;2801;50.972;7.856;2023-12-04T09:25:35;97022.66;;;-0.82
24201;BMP280;2801;50.972;7.856;2023-12-04T09:28:03;97019.25;;;-0.82
24201;BMP280;2801;50.972;7.856;2023-12-04T09:30:30;97017.94;;;-0.85
24201;BMP280;2801;50.972;7.856;2023-12-04T09:32:58;97010.53;;;-0.83
24201;BMP280;2801;50.972;7.856;2023-12-04T09:35:25;97003.72;;;-0.79
24201;BMP280;2801;50.972;7.856;2023-12-04T09:37:52;97006.09;;;-0.77
24201;BMP280;2801;50.972;7.856;2023-12-04T09:40:19;97016.09;;;-0.74
24201;BMP280;2801;50.972;7.856;2023-12-04T09:42:47;97000.84;;;-0.67
24201;BMP280;2801;50.972;7.856;2023-12-04T09:45:15;97006.88;;;-0.67
24201;BMP280;2801;50.972;7.856;2023-12-04T09:47:43;97001.34;;;-0.65
24201;BMP280;2801;50.972;7.856;2023-12-04T09:50:11;97000.31;;;-0.59
24201;BMP280;2801;50.972;7.856;2023-12-04T09:52:39;96993.97;;;-0.53
24201;BMP280;2801;50.972;7.856;2023-12-04T09:55:06;96986.06;;;-0.53
24201;BMP280;2801;50.972;7.856;2023-12-04T09:57:34;96988.19;;;-0.50
24201;BMP280;2801;50.972;7.856;2023-12-04T10:00:03;96984.25;;;-0.53
24201;BMP280;2801;50.972;7.856;2023-12-04T10:02:32;96976.88;;;-0.56
24201;BMP280;2801;50.972;7.856;2023-12-04T10:04:59;96973.47;;;-0.51
24201;BMP280;2801;50.972;7.856;2023-12-04T10:07:26;96965.56;;;-0.51
24201;BMP280;2801;50.972;7.856;2023-12-04T10:09:53;96972.13;;;-0.49
24201;BMP280;2801;50.972;7.856;2023-12-04T10:12:20;96975.56;;;-0.48
24201;BMP280;2801;50.972;7.856;2023-12-04T10:15:07;96965.81;;;-0.53
24201;BMP280;2801;50.972;7.856;2023-12-04T10:17:40;96961.84;;;-0.50
24201;BMP280;2801;50.972;7.856;2023-12-04T10:20:13;96957.91;;;-0.43
24201;BMP280;2801;50.972;7.856;2023-12-04T10:22:57;96957.66;;;-0.41
24201;BMP280;2801;50.972;7.856;2023-12-04T10:25:29;96949.75;;;-0.41
24201;BMP280;2801;50.972;7.856;2023-12-04T10:28:15;96930.53;;;-0.42
24201;BMP280;2801;50.972;7.856;2023-12-04T10:30:42;96935.50;;;-0.35
24201;BMP280;2801;50.972;7.856;2023-12-04T10:33:11;96925.25;;;-0.32
24201;BMP280;2801;50.972;7.856;2023-12-04T10:35:38;96926.03;;;-0.26
24201;BMP280;2801;50.972;7.856;2023-12-04T10:38:07;96909.44;;;-0.27
24201;BMP280;2801;50.972;7.856;2023-12-04T10:40:36;96907.59;;;-0.26
24201;BMP280;2801;50.972;7.856;2023-12-04T10:43:23;96912.84;;;-0.21
24201;BMP280;2801;50.972;7.856;2023-12-04T10:45:51;96917.28;;;-0.12
24201;BMP280;2801;50.972;7.856;2023-12-04T10:48:21;96915.47;;;-0.11
24201;BMP280;2801;50.972;7.856;2023-12-04T10:50:49;96905.41;;;0.01
24201;BMP280;2801;50.972;7.856;2023-12-04T10:53:17;96894.31;;;0.04
24201;BMP280;2801;50.972;7.856;2023-12-04T10:55:45;96898.00;;;0.03
24201;BMP280;2801;50.972;7.856;2023-12-04T10:58:15;96889.03;;;0.09
24201;BMP280;2801;50.972;7.856;2023-12-04T11:00:48;96886.63;;;0.18
24201;BMP280;2801;50.972;7.856;2023-12-04T11:03:33;96877.88;;;0.27
24201;BMP280;2801;50.972;7.856;2023-12-04T11:06:02;96877.56;;;0.34
24201;BMP280;2801;50.972;7.856;2023-12-04T11:08:35;96873.84;;;0.40
24201;BMP280;2801;50.972;7.856;2023-12-04T11:11:05;96873.81;;;0.45
24201;BMP280;2801;50.972;7.856;2023-12-04T11:13:50;96863.78;;;0.47
24201;BMP280;2801;50.972;7.856;2023-12-04T11:16:47;96866.41;;;0.47
24201;BMP280;2801;50.972;7.856;2023-12-04T11:19:18;96859.03;;;0.49
24201;BMP280;2801;50.972;7.856;2023-12-04T11:21:49;96851.72;;;0.41
24201;BMP280;2801;50.972;7.856;2023-12-04T11:24:18;96857.75;;;0.41
24201;BMP280;2801;50.972;7.856;2023-12-04T11:26:46;96850.38;;;0.43
24201;BMP280;2801;50.972;7.856;2023-12-04T11:29:14;96842.72;;;0.42
24201;BMP280;2801;50.972;7.856;2023-12-04T11:31:42;96842.72;;;0.42
24201;BMP280;2801;50.972;7.856;2023-12-04T11:34:09;96840.09;;;0.42
24201;BMP280;2801;50.972;7.856;2023-12-04T11:36:36;96839.56;;;0.45
24201;BMP280;2801;50.972;7.856;2023-12-04T11:39:08;96829.00;;;0.45
24201;BMP280;2801;50.972;7.856;2023-12-04T11:41:37;96819.22;;;0.45
24201;BMP280;2801;50.972;7.856;2023-12-04T11:44:29;96816.31;;;0.47
24201;BMP280;2801;50.972;7.856;2023-12-04T11:47:57;96814.28;;;0.39
24201;BMP280;2801;50.972;7.856;2023-12-04T11:50:25;96810.28;;;0.41
24201;BMP280;2801;50.972;7.856;2023-12-04T11:52:54;96808.72;;;0.40
24201;BMP280;2801;50.972;7.856;2023-12-04T11:55:25;96803.44;;;0.40
24201;BMP280;2801;50.972;7.856;2023-12-04T11:57:54;96798.44;;;0.39
24201;BMP280;2801;50.972;7.856;2023-12-04T12:00:23;96800.00;;;0.45
24201;BMP280;2801;50.972;7.856;2023-12-04T12:05:41;96793.69;;;0.41
24201;BMP280;2801;50.972;7.856;2023-12-04T12:08:09;96789.78;;;0.38
24201;BMP280;2801;50.972;7.856;2023-12-04T12:10:37;96782.88;;;0.42
24201;BMP280;2801;50.972;7.856;2023-12-04T12:13:04;96777.84;;;0.46
24201;BMP280;2801;50.972;7.856;2023-12-04T12:15:33;96765.44;;;0.46
24201;BMP280;2801;50.972;7.856;2023-12-04T12:18:01;96758.03;;;0.48
24201;BMP280;2801;50.972;7.856;2023-12-04T12:20:28;96759.38;;;0.46
24201;BMP280;2801;50.972;7.856;2023-12-04T12:22:55;96750.72;;;0.40
24201;BMP280;2801;50.972;7.856;2023-12-04T12:25:24;96746.25;;;0.41
24201;BMP280;2801;50.972;7.856;2023-12-04T12:27:52;96740.97;;;0.41
24201;BMP280;2801;50.972;7.856;2023-12-04T12:30:20;96735.66;;;0.46
24201;BMP280;2801;50.972;7.856;2023-12-04T12:32:47;96722.75;;;0.44
24201;BMP280;2801;50.972;7.856;2023-12-04T12:35:14;96724.84;;;0.47
24201;BMP280;2801;50.972;7.856;2023-12-04T12:37:41;96721.13;;;0.48
24201;BMP280;2801;50.972;7.856;2023-12-04T12:40:10;96714.56;;;0.46
24201;BMP280;2801;50.972;7.856;2023-12-04T12:42:37;96710.38;;;0.40
24201;BMP280;2801;50.972;7.856;2023-12-04T12:45:09;96700.41;;;0.37
24201;BMP280;2801;50.972;7.856;2023-12-04T12:47:42;96699.63;;;0.36
24201;BMP280;2801;50.972;7.856;2023-12-04T12:50:10;96699.84;;;0.40
24201;BMP280;2801;50.972;7.856;2023-12-04T12:52:37;96695.69;;;0.34
24201;BMP280;2801;50.972;7.856;2023-12-04T12:55:05;96697.31;;;0.30
24201;BMP280;2801;50.972;7.856;2023-12-04T12:57:32;96691.75;;;0.31
24201;BMP280;2801;50.972;7.856;2023-12-04T12:59:59;96689.88;;;0.32
24201;BMP280;2801;50.972;7.856;2023-12-04T13:02:26;96673.63;;;0.25
24201;BMP280;2801;50.972;7.856;2023-12-04T13:04:55;96685.69;;;0.31
24201;BMP280;2801;50.972;7.856;2023-12-04T13:07:23;96674.34;;;0.30
24201;BMP280;2801;50.972;7.856;2023-12-04T13:09:50;96678.03;;;0.34
24201;BMP280;2801;50.972;7.856;2023-12-04T13:12:17;96673.53;;;0.35
24201;BMP280;2801;50.972;7.856;2023-12-04T13:14:44;96681.97;;;0.37
24201;BMP280;2801;50.972;7.856;2023-12-04T13:17:11;96679.06;;;0.33
24201;BMP280;2801;50.972;7.856;2023-12-04T13:19:38;96671.41;;;0.37
24201;BMP280;2801;50.972;7.856;2023-12-04T13:22:05;96674.06;;;0.37
24201;BMP280;2801;50.972;7.856;2023-12-04T13:24:32;96670.34;;;0.38
24201;BMP280;2801;50.972;7.856;2023-12-04T13:26:59;96664.78;;;0.39
24201;BMP280;2801;50.972;7.856;2023-12-04T13:29:26;96660.88;;;0.37
24201;BMP280;2801;50.972;7.856;2023-12-04T13:31:53;96659.28;;;0.36
24201;BMP280;2801;50.972;7.856;2023-12-04T13:34:20;96655.63;;;0.32
24201;BMP280;2801;50.972;7.856;2023-12-04T13:36:49;96646.94;;;0.31
24201;BMP280;2801;50.972;7.856;2023-12-04T13:39:16;96655.06;;;0.35
24201;BMP280;2801;50.972;7.856;2023-12-04T13:41:46;96646.41;;;0.34
24201;BMP280;2801;50.972;7.856;2023-12-04T13:44:32;96642.50;;;0.27
24201;BMP280;2801;50.972;7.856;2023-12-04T13:47:00;96640.69;;;0.22
24201;BMP280;2801;50.972;7.856;2023-12-04T13:49:27;96637.00;;;0.23
24201;BMP280;2801;50.972;7.856;2023-12-04T13:51:55;96631.25;;;0.16
24201;BMP280;2801;50.972;7.856;2023-12-04T13:54:22;96630.00;;;0.08
24201;BMP280;2801;50.972;7.856;2023-12-04T13:57:00;96626.88;;;0.01
24201;BMP280;2801;50.972;7.856;2023-12-04T13:59:27;96623.22;;;-0.03
24201;BMP280;2801;50.972;7.856;2023-12-04T14:01:56;96609.28;;;-0.03
24201;BMP280;2801;50.972;7.856;2023-12-04T14:04:27;96608.28;;;-0.07
24201;BMP280;2801;50.972;7.856;2023-12-04T14:06:55;96610.34;;;-0.04
24201;BMP280;2801;50.972;7.856;2023-12-04T14:09:26;96604.78;;;-0.03
24201;BMP280;2801;50.972;7.856;2023-12-04T14:11:54;96597.63;;;0.03
24201;BMP280;2801;50.972;7.856;2023-12-04T14:14:22;96596.25;;;0.11
24201;BMP280;2801;50.972;7.856;2023-12-04T14:16:49;96594.09;;;0.18
24201;BMP280;2801;50.972;7.856;2023-12-04T14:28:14;96578.03;;;0.14
24201;BMP280;2801;50.972;7.856;2023-12-04T14:30:44;96578.16;;;0.04
24201;BMP280;2801;50.972;7.856;2023-12-04T14:33:11;96576.06;;;0.01
24201;BMP280;2801;50.972;7.856;2023-12-04T14:35:39;96573.44;;;-0.04
24201;BMP280;2801;50.972;7.856;2023-12-04T14:38:06;96575.88;;;-0.08
24201;BMP280;2801;50.972;7.856;2023-12-04T14:40:32;96570.38;;;-0.11
24201;BMP280;2801;50.972;7.856;2023-12-04T14:42:59;96571.16;;;-0.11